Time;durP1;ratioP1;P1;durP2;ratioP2;P2;SDS_P1;SDS_P2;PMS_P1;PMS_P2;Temp;Humidity;BMP_temperature;BMP_pressure;BME280_temperature;BME280_humidity;BME280_pressure;Samples;Min_cycle;Max_cycle;Signal;HPM_P1;HPM_P2
2021/08/04 00:00:01;;;;;;;;;;;;;;;24.77;56.13;100686.28;5029511;28;1910;-52
2021/08/04 00:02:28;;;;;;;;;;;;;;;24.74;56.68;100702.84;5032352;28;1683;-52
2021/08/04 00:05:02;;;;;;;;;;;;;;;24.65;56.00;100671.47;5033420;28;1505;-52
2021/08/04 00:07:35;;;;;;;;;;;;;;;24.73;55.97;100684.06;5030908;28;1633;-52
2021/08/04 00:10:07;;;;;;;;;;;;;;;24.72;55.81;100664.31;5022658;28;1869;-52
2021/08/04 00:12:34;;;;;;;;;;;;;;;24.66;56.07;100677.72;5027980;28;1798;-52
2021/08/04 00:15:01;;;;;;;;;;;;;;;24.65;56.74;100676.00;5032799;28;1767;-52
2021/08/04 00:17:28;;;;;;;;;;;;;;;24.67;56.42;100679.38;5028643;28;1765;-52
2021/08/04 00:19:58;;;;;;;;;;;;;;;24.63;55.72;100683.44;5018330;28;1902;-52
2021/08/04 00:22:24;;;;;;;;;;;;;;;24.60;55.94;100685.50;5028666;28;1873;-52
2021/08/04 00:24:52;;;;;;;;;;;;;;;24.54;56.32;100674.53;5023275;28;1222;-52
2021/08/04 00:27:24;;;;;;;;;;;;;;;24.59;56.29;100673.00;5016098;28;1991;-52
2021/08/04 00:29:53;;;;;;;;;;;;;;;24.66;56.21;100678.53;5028914;28;1587;-52
2021/08/04 00:32:20;;;;;;;;;;;;;;;24.59;55.87;100674.84;5023644;28;1643;-52
2021/08/04 00:34:51;;;;;;;;;;;;;;;24.60;56.08;100685.50;5020291;28;1508;-52
2021/08/04 00:37:28;;;;;;;;;;;;;;;24.58;56.03;100678.56;5034043;28;2169;-52
2021/08/04 00:40:15;;;;;;;;;;;;;;;24.61;55.42;100681.78;5027489;28;1909;-52
2021/08/04 00:42:46;;;;;;;;;;;;;;;24.58;54.89;100674.00;5018395;28;1497;-52
2021/08/04 00:45:12;;;;;;;;;;;;;;;24.52;55.74;100685.53;5030928;28;1998;-52
2021/08/04 00:47:39;;;;;;;;;;;;;;;24.54;55.12;100685.34;5018875;28;1877;-52
2021/08/04 00:50:19;;;;;;;;;;;;;;;24.55;55.60;100693.28;5034057;28;994;-52
2021/08/04 00:52:50;;;;;;;;;;;;;;;24.54;55.31;100686.19;5030688;28;1517;-53
2021/08/04 00:55:20;;;;;;;;;;;;;;;24.54;54.97;100678.06;5033702;28;1084;-52
2021/08/04 00:57:53;;;;;;;;;;;;;;;24.52;54.67;100658.47;5022903;28;1950;-52
2021/08/04 01:00:19;;;;;;;;;;;;;;;24.60;55.30;100684.66;5029412;28;2056;-52
2021/08/04 01:02:54;;;;;;;;;;;;;;;24.52;55.26;100681.97;5032778;28;1861;-52
2021/08/04 01:05:27;;;;;;;;;;;;;;;24.53;55.26;100681.81;5033041;28;1100;-52
2021/08/04 01:08:03;;;;;;;;;;;;;;;24.53;54.66;100676.41;5023280;28;1456;-52
2021/08/04 01:10:32;;;;;;;;;;;;;;;24.56;54.56;100676.03;5022773;28;1614;-52
2021/08/04 01:13:07;;;;;;;;;;;;;;;24.53;54.74;100676.41;5027943;28;1757;-52
2021/08/04 01:15:36;;;;;;;;;;;;;;;24.47;54.67;100671.66;5018264;28;1662;-52
2021/08/04 01:18:11;;;;;;;;;;;;;;;24.44;54.39;100690.91;5028503;28;1759;-52
2021/08/04 01:20:40;;;;;;;;;;;;;;;24.40;54.70;100684.19;5032268;28;1910;-52
2021/08/04 01:23:13;;;;;;;;;;;;;;;24.39;55.01;100674.38;5024649;28;1981;-52
2021/08/04 01:25:45;;;;;;;;;;;;;;;24.41;54.62;100669.63;5029410;28;1055;-52
2021/08/04 01:28:24;;;;;;;;;;;;;;;24.40;54.94;100668.78;5019882;28;1856;-52
2021/08/04 01:31:06;;;;;;;;;;;;;;;24.42;54.69;100693.78;5029072;28;1424;-52
2021/08/04 01:33:35;;;;;;;;;;;;;;;24.47;54.69;100676.22;5030309;28;2002;-52
2021/08/04 01:36:02;;;;;;;;;;;;;;;24.39;54.65;100666.25;5032468;28;1497;-52
2021/08/04 01:38:30;;;;;;;;;;;;;;;24.38;54.64;100662.72;5032446;28;1807;-52
2021/08/04 01:40:58;;;;;;;;;;;;;;;24.44;54.79;100669.28;5032537;28;1981;-52
2021/08/04 01:43:26;;;;;;;;;;;;;;;24.47;54.85;100673.50;5029476;28;1797;-52
2021/08/04 01:45:58;;;;;;;;;;;;;;;24.46;54.66;100675.38;5027445;28;1905;-52
2021/08/04 01:48:26;;;;;;;;;;;;;;;24.45;54.46;100683.66;5016781;28;2033;-52
2021/08/04 01:51:01;;;;;;;;;;;;;;;24.48;54.55;100670.63;5013865;28;1128;-52
2021/08/04 01:53:29;;;;;;;;;;;;;;;24.45;54.63;100670.97;5027710;28;1551;-52
2021/08/04 01:55:57;;;;;;;;;;;;;;;24.42;54.76;100657.81;5033325;28;998;-52
2021/08/04 01:58:29;;;;;;;;;;;;;;;24.44;54.92;100669.28;5022322;28;1756;-52
2021/08/04 02:01:30;;;;;;;;;;;;;;;24.41;54.75;100650.72;5123333;23;3562;-55
2021/08/04 02:03:57;;;;;;;;;;;;;;;24.39;54.61;100653.63;4983233;28;1675;-53
2021/08/04 02:06:28;;;;;;;;;;;;;;;24.40;55.01;100663.38;4992812;28;1027;-53
2021/08/04 02:08:58;;;;;;;;;;;;;;;24.40;54.63;100662.56;4990970;28;1865;-53
2021/08/04 02:11:28;;;;;;;;;;;;;;;24.40;55.08;100663.38;4982397;28;1556;-53
2021/08/04 02:14:00;;;;;;;;;;;;;;;24.40;54.79;100668.78;4985509;28;1907;-53
2021/08/04 02:16:28;;;;;;;;;;;;;;;24.35;55.17;100676.59;4985227;28;1685;-53
2021/08/04 02:18:58;;;;;;;;;;;;;;;24.37;55.05;100684.50;4990079;28;1589;-53
2021/08/04 02:21:25;;;;;;;;;;;;;;;24.37;54.82;100679.09;4996204;28;1903;-53
2021/08/04 02:23:53;;;;;;;;;;;;;;;24.43;54.86;100689.22;4983773;28;1627;-53
2021/08/04 02:26:21;;;;;;;;;;;;;;;24.32;54.87;100676.09;4995162;28;1815;-53
2021/08/04 02:28:51;;;;;;;;;;;;;;;24.34;54.91;100691.13;4995580;28;1385;-53
2021/08/04 02:31:20;;;;;;;;;;;;;;;24.35;54.53;100689.25;4983808;28;1136;-52
2021/08/04 02:33:47;;;;;;;;;;;;;;;24.35;54.78;100686.53;4983642;28;1689;-52
2021/08/04 02:36:14;;;;;;;;;;;;;;;24.37;55.08;100690.78;4989103;28;1639;-53
2021/08/04 02:38:40;;;;;;;;;;;;;;;24.37;55.03;100695.31;4981282;28;1811;-53
2021/08/04 02:41:07;;;;;;;;;;;;;;;24.36;54.96;100693.66;4984994;28;1977;-54
2021/08/04 02:43:34;;;;;;;;;;;;;;;24.31;55.25;100685.19;4985023;28;2377;-53
2021/08/04 02:46:00;;;;;;;;;;;;;;;24.39;55.04;100696.00;4984847;28;1720;-53
2021/08/04 02:48:28;;;;;;;;;;;;;;;24.32;55.10;100697.72;4986658;28;1571;-53
2021/08/04 02:50:58;;;;;;;;;;;;;;;24.27;55.29;100710.88;4995336;28;1103;-53
2021/08/04 02:53:24;;;;;;;;;;;;;;;24.26;55.49;100709.22;4989161;28;1909;-52
2021/08/04 02:55:51;;;;;;;;;;;;;;;24.30;55.69;100699.75;4978588;28;1079;-53
2021/08/04 02:58:18;;;;;;;;;;;;;;;24.33;55.75;100699.38;4980922;28;1871;-52
2021/08/04 03:00:44;;;;;;;;;;;;;;;24.27;55.68;100711.72;4992526;28;2723;-52
2021/08/04 03:03:11;;;;;;;;;;;;;;;23.85;56.82;100714.66;5008194;28;1396;-52
2021/08/04 03:05:39;;;;;;;;;;;;;;;23.88;57.06;100708.91;5007956;28;1896;-50
2021/08/04 03:08:05;;;;;;;;;;;;;;;24.22;56.58;100712.25;5011756;28;1619;-52
2021/08/04 03:10:32;;;;;;;;;;;;;;;23.07;58.99;100724.78;5007084;28;2035;-53
2021/08/04 03:12:58;;;;;;;;;;;;;;;23.81;57.78;100725.81;5007656;28;11644;-52
2021/08/04 03:15:25;;;;;;;;;;;;;;;24.24;56.29;100714.78;5003958;28;1774;-51
2021/08/04 03:17:51;;;;;;;;;;;;;;;24.32;55.82;100717.47;5012876;28;1561;-53
2021/08/04 03:20:18;;;;;;;;;;;;;;;24.51;55.75;100719.00;5004587;28;1971;-53
2021/08/04 03:22:46;;;;;;;;;;;;;;;24.72;55.34;100706.75;4996514;28;1911;-53
2021/08/04 03:25:13;;;;;;;;;;;;;;;24.84;55.97;100718.88;5005820;28;1079;-53
2021/08/04 03:27:40;;;;;;;;;;;;;;;24.91;55.96;100709.03;5007624;28;1754;-52
2021/08/04 03:30:08;;;;;;;;;;;;;;;25.00;56.16;100724.19;5007884;28;1685;-53
2021/08/04 03:32:34;;;;;;;;;;;;;;;25.02;55.75;100708.63;5012260;28;1754;-53
2021/08/04 03:35:01;;;;;;;;;;;;;;;25.09;55.90;100706.06;5010070;28;1716;-52
2021/08/04 03:37:27;;;;;;;;;;;;;;;25.09;56.68;100694.38;5003365;28;1720;-52
2021/08/04 03:39:55;;;;;;;;;;;;;;;25.11;57.09;100714.84;5011299;28;1910;-53
2021/08/04 03:42:21;;;;;;;;;;;;;;;25.16;56.99;100698.06;5003480;28;1566;-52
2021/08/04 03:44:48;;;;;;;;;;;;;;;25.18;56.46;100710.41;5003070;28;1681;-54
2021/08/04 03:47:14;;;;;;;;;;;;;;;25.22;56.96;100708.22;5001687;28;1866;-53
2021/08/04 03:49:41;;;;;;;;;;;;;;;25.20;56.67;100702.94;5012805;28;1759;-52
2021/08/04 03:52:07;;;;;;;;;;;;;;;25.28;56.52;100714.78;5012368;28;1977;-52
2021/08/04 03:54:34;;;;;;;;;;;;;;;25.27;56.97;100713.94;5013535;28;1099;-52
2021/08/04 03:57:02;;;;;;;;;;;;;;;25.27;57.14;100704.97;5012867;28;2124;-52
2021/08/04 03:59:28;;;;;;;;;;;;;;;25.32;56.21;100705.28;5009981;28;1803;-52
2021/08/04 04:01:55;;;;;;;;;;;;;;;25.34;56.22;100728.44;5003240;28;1954;-53
2021/08/04 04:04:21;;;;;;;;;;;;;;;25.31;56.52;100720.69;5009948;28;1845;-52
2021/08/04 04:06:48;;;;;;;;;;;;;;;25.37;56.18;100728.09;5003693;28;1630;-53
2021/08/04 04:09:14;;;;;;;;;;;;;;;25.37;57.10;100725.38;5013172;28;1083;-52
2021/08/04 04:11:40;;;;;;;;;;;;;;;25.39;57.17;100722.50;5000984;28;1773;-54
2021/08/04 04:14:08;;;;;;;;;;;;;;;25.44;57.06;100711.13;5007539;28;1969;-53
2021/08/04 04:16:35;;;;;;;;;;;;;;;25.47;57.36;100721.63;5003039;28;1885;-52
2021/08/04 04:19:08;;;;;;;;;;;;;;;25.48;57.18;100709.75;5001845;28;2181;-52
2021/08/04 04:21:34;;;;;;;;;;;;;;;25.50;57.29;100713.13;5004417;28;1906;-55
2021/08/04 04:24:01;;;;;;;;;;;;;;;25.50;57.41;100721.25;5011630;28;1753;-53
2021/08/04 04:26:27;;;;;;;;;;;;;;;25.54;56.35;100728.81;5010988;28;1641;-52
2021/08/04 04:28:54;;;;;;;;;;;;;;;25.61;56.54;100731.66;5002332;28;1661;-53
2021/08/04 04:31:22;;;;;;;;;;;;;;;25.59;57.27;100725.59;5011971;28;1083;-52
2021/08/04 04:33:48;;;;;;;;;;;;;;;25.63;57.13;100720.66;5000564;28;1667;-52
2021/08/04 04:36:15;;;;;;;;;;;;;;;25.66;56.31;100718.41;5000697;28;1647;-52
2021/08/04 04:38:41;;;;;;;;;;;;;;;25.70;56.48;100717.03;5006649;28;1604;-53
2021/08/04 04:41:07;;;;;;;;;;;;;;;25.72;56.68;100720.38;5004575;28;1906;-53
2021/08/04 04:43:36;;;;;;;;;;;;;;;25.70;57.42;100719.72;5002925;28;1831;-53
2021/08/04 04:46:03;;;;;;;;;;;;;;;25.76;56.63;100720.88;5002455;28;1743;-52
2021/08/04 04:48:30;;;;;;;;;;;;;;;25.77;57.31;100718.00;5002407;28;1691;-52
2021/08/04 04:50:57;;;;;;;;;;;;;;;25.78;56.56;100716.97;5004196;28;1006;-52
2021/08/04 04:53:23;;;;;;;;;;;;;;;25.78;56.96;100726.94;5003294;28;1744;-53
2021/08/04 04:55:50;;;;;;;;;;;;;;;25.77;57.03;100728.00;5009755;28;1008;-53
2021/08/04 04:58:16;;;;;;;;;;;;;;;25.80;57.39;100731.19;5010961;28;1724;-53
2021/08/04 05:00:43;;;;;;;;;;;;;;;25.84;56.85;100734.34;5006295;28;1942;-52
2021/08/04 05:03:09;;;;;;;;;;;;;;;25.83;57.16;100737.28;4993148;28;1443;-53
2021/08/04 05:05:37;;;;;;;;;;;;;;;25.81;57.47;100737.44;5009591;28;1895;-53
2021/08/04 05:08:04;;;;;;;;;;;;;;;25.82;56.78;100728.28;5006146;28;1978;-52
2021/08/04 05:10:30;;;;;;;;;;;;;;;25.84;57.62;100733.53;5005269;28;1594;-53
2021/08/04 05:12:57;;;;;;;;;;;;;;;25.84;57.42;100725.38;5008915;28;1673;-52
2021/08/04 05:15:23;;;;;;;;;;;;;;;25.86;57.74;100734.19;5002218;28;1849;-53
2021/08/04 05:17:50;;;;;;;;;;;;;;;25.88;57.54;100732.97;5008967;28;1852;-52
2021/08/04 05:20:16;;;;;;;;;;;;;;;25.87;56.97;100730.47;4999717;28;1930;-53
2021/08/04 05:22:44;;;;;;;;;;;;;;;25.86;56.97;100731.47;5008855;28;1962;-53
2021/08/04 05:25:11;;;;;;;;;;;;;;;25.91;56.98;100748.91;5004491;28;1195;-52
2021/08/04 05:27:37;;;;;;;;;;;;;;;25.90;56.92;100747.19;5010965;28;1844;-53
2021/08/04 05:30:04;;;;;;;;;;;;;;;25.88;57.77;100738.38;5006795;28;1463;-53
2021/08/04 05:32:31;;;;;;;;;;;;;;;25.90;57.86;100743.63;5001749;28;1770;-52
2021/08/04 05:34:57;;;;;;;;;;;;;;;25.89;57.19;100750.91;5004121;28;1771;-52
2021/08/04 05:37:24;;;;;;;;;;;;;;;25.89;57.28;100750.09;5000461;28;1799;-52
2021/08/04 05:39:52;;;;;;;;;;;;;;;25.91;57.92;100753.50;5002016;28;1755;-54
2021/08/04 05:42:24;;;;;;;;;;;;;;;25.91;57.54;100745.34;5000888;28;1902;-53
2021/08/04 05:44:51;;;;;;;;;;;;;;;25.93;57.96;100757.69;5001169;28;1730;-53
2021/08/04 05:47:17;;;;;;;;;;;;;;;25.94;57.15;100742.25;5014215;28;935;-52
2021/08/04 05:49:44;;;;;;;;;;;;;;;25.95;57.38;100743.97;5014839;28;1890;-52
2021/08/04 05:52:11;;;;;;;;;;;;;;;25.97;57.32;100752.75;5015168;28;1953;-53
2021/08/04 05:54:37;;;;;;;;;;;;;;;25.96;57.11;100745.63;5015921;28;1050;-53
2021/08/04 05:57:05;;;;;;;;;;;;;;;25.96;58.19;100745.63;5014308;28;2164;-52
2021/08/04 05:59:32;;;;;;;;;;;;;;;25.97;57.28;100737.34;5012632;28;1952;-52
2021/08/04 06:01:58;;;;;;;;;;;;;;;25.96;57.37;100734.78;5005803;28;1975;-52
2021/08/04 06:04:25;;;;;;;;;;;;;;;25.99;57.65;100734.44;5015046;28;1619;-52
2021/08/04 06:06:51;;;;;;;;;;;;;;;26.03;58.06;100735.75;5014229;28;1503;-53
2021/08/04 06:09:18;;;;;;;;;;;;;;;26.01;57.34;100726.13;5005086;28;1086;-52
2021/08/04 06:11:44;;;;;;;;;;;;;;;26.01;57.97;100726.97;5007078;28;1953;-52
2021/08/04 06:14:12;;;;;;;;;;;;;;;26.02;57.74;100720.50;5012751;28;2280;-52
2021/08/04 06:16:38;;;;;;;;;;;;;;;26.06;57.42;100729.97;5004452;28;1855;-52
2021/08/04 06:19:05;;;;;;;;;;;;;;;26.05;57.87;100703.06;5008434;28;1779;-52
2021/08/04 06:21:31;;;;;;;;;;;;;;;26.08;57.78;100727.06;4998497;28;1962;-52
2021/08/04 06:23:58;;;;;;;;;;;;;;;26.07;57.49;100722.69;5001956;28;1808;-53
2021/08/04 06:26:24;;;;;;;;;;;;;;;26.11;58.18;100732.16;5014292;28;1600;-53
2021/08/04 06:28:51;;;;;;;;;;;;;;;26.14;57.42;100718.22;5014680;28;2452;-53
2021/08/04 06:31:19;;;;;;;;;;;;;;;26.08;57.99;100711.66;5004083;28;998;-52
2021/08/04 06:33:45;;;;;;;;;;;;;;;26.10;58.27;100714.19;5007353;28;1622;-52
2021/08/04 06:36:12;;;;;;;;;;;;;;;26.17;58.05;100731.41;5000928;28;1722;-52
2021/08/04 06:38:38;;;;;;;;;;;;;;;26.16;57.40;100717.00;5005074;28;1662;-52
2021/08/04 06:41:05;;;;;;;;;;;;;;;26.15;57.92;100728.88;5004639;28;1915;-53
2021/08/04 06:43:31;;;;;;;;;;;;;;;26.13;57.50;100739.06;5004595;28;1749;-52
2021/08/04 06:45:57;;;;;;;;;;;;;;;26.17;58.08;100734.94;5002622;28;1801;-52
2021/08/04 06:48:25;;;;;;;;;;;;;;;26.15;57.69;100723.44;5009598;28;1737;-53
2021/08/04 06:50:52;;;;;;;;;;;;;;;26.17;58.33;100726.81;5014994;28;1062;-52
2021/08/04 06:53:18;;;;;;;;;;;;;;;26.18;57.63;100733.06;5006107;28;1666;-52
2021/08/04 06:55:45;;;;;;;;;;;;;;;26.19;57.64;100746.44;5011704;28;1093;-52
2021/08/04 06:58:11;;;;;;;;;;;;;;;26.21;57.57;100729.16;5006881;28;2063;-52
2021/08/04 07:00:39;;;;;;;;;;;;;;;26.19;57.75;100732.91;5003446;28;1974;-52
2021/08/04 07:03:06;;;;;;;;;;;;;;;26.18;58.26;100731.22;4995711;28;1416;-52
2021/08/04 07:05:34;;;;;;;;;;;;;;;26.23;57.71;100724.41;5000565;28;2002;-52
2021/08/04 07:08:01;;;;;;;;;;;;;;;26.26;57.52;100726.72;5013503;28;1669;-52
2021/08/04 07:10:27;;;;;;;;;;;;;;;26.21;57.75;100726.47;5009918;28;1735;-55
2021/08/04 07:12:53;;;;;;;;;;;;;;;26.22;57.80;100728.97;5002911;28;1585;-52
2021/08/04 07:15:20;;;;;;;;;;;;;;;26.22;58.20;100722.72;5002266;28;1688;-52
2021/08/04 07:17:47;;;;;;;;;;;;;;;26.26;57.61;100726.72;5004454;28;1558;-52
2021/08/04 07:20:14;;;;;;;;;;;;;;;26.24;58.69;100726.06;5014526;28;1124;-52
2021/08/04 07:22:42;;;;;;;;;;;;;;;26.23;58.40;100705.44;5007544;28;1981;-52
2021/08/04 07:25:10;;;;;;;;;;;;;;;26.26;57.86;100718.59;4994802;28;996;-52
2021/08/04 07:27:36;;;;;;;;;;;;;;;26.27;57.81;100714.88;4999705;28;1627;-52
2021/08/04 07:30:03;;;;;;;;;;;;;;;26.27;58.26;100717.59;5007803;28;1590;-52
2021/08/04 07:32:30;;;;;;;;;;;;;;;26.28;57.88;100720.13;5012999;28;1512;-52
2021/08/04 07:35:00;;;;;;;;;;;;;;;26.30;58.01;100717.19;5012603;28;1727;-52
2021/08/04 07:37:26;;;;;;;;;;;;;;;26.26;57.84;100718.59;5012710;28;1699;-52
2021/08/04 07:39:54;;;;;;;;;;;;;;;26.30;58.71;100730.75;5011070;28;1862;-52
2021/08/04 07:42:21;;;;;;;;;;;;;;;26.27;57.90;100723.00;5002641;28;1910;-52
2021/08/04 07:44:47;;;;;;;;;;;;;;;26.32;58.07;100717.84;5005594;28;1055;-52
2021/08/04 07:47:14;;;;;;;;;;;;;;;26.32;57.88;100728.69;5002013;28;1397;-52
2021/08/04 07:49:40;;;;;;;;;;;;;;;26.33;58.37;100730.41;5001788;28;1961;-53
2021/08/04 07:52:07;;;;;;;;;;;;;;;26.32;58.09;100734.13;5010613;28;2036;-53
2021/08/04 07:54:34;;;;;;;;;;;;;;;26.31;58.21;100721.63;5005190;28;1094;-52
2021/08/04 07:57:02;;;;;;;;;;;;;;;26.33;58.12;100714.13;5012620;28;1527;-52
2021/08/04 07:59:28;;;;;;;;;;;;;;;26.31;57.94;100719.72;5011790;28;1780;-52
2021/08/04 08:01:55;;;;;;;;;;;;;;;26.33;58.85;100709.53;5012227;28;1910;-52
2021/08/04 08:04:21;;;;;;;;;;;;;;;26.31;58.30;100733.28;4970733;28;1687;-52
2021/08/04 08:06:48;;;;;;;;;;;;;;;26.33;58.42;100714.97;4965051;28;1943;-53
2021/08/04 08:09:21;;;;;;;;;;;;;;;26.33;58.77;100714.13;4974224;28;1102;-53
2021/08/04 08:12:05;;;;;;;;;;;;;;;;;;;;;
2021/08/04 08:14:34;;;;;;;;;;;;;;;26.34;58.92;100710.38;4961409;28;1382;-52
2021/08/04 08:17:00;;;;;;;;;;;;;;;26.34;58.70;100713.09;4972409;28;1762;-52
2021/08/04 08:19:27;;;;;;;;;;;;;;;26.35;58.30;100718.34;4962389;28;1942;-53
2021/08/04 08:21:53;;;;;;;;;;;;;;;26.34;58.76;100715.81;4972450;28;1981;-52
2021/08/04 08:24:21;;;;;;;;;;;;;;;26.36;58.69;100713.75;4972290;28;1082;-52
2021/08/04 08:26:47;;;;;;;;;;;;;;;26.35;58.96;100704.78;4971158;28;2084;-52
2021/08/04 08:29:14;;;;;;;;;;;;;;;26.36;59.02;100692.06;4964752;28;1777;-52
2021/08/04 08:31:42;;;;;;;;;;;;;;;26.37;58.27;100701.88;4964435;28;1724;-52
2021/08/04 08:34:08;;;;;;;;;;;;;;;26.34;58.41;100699.53;4973923;28;1482;-53
2021/08/04 08:36:35;;;;;;;;;;;;;;;26.37;59.08;100710.03;4965095;28;1937;-52
2021/08/04 08:39:04;;;;;;;;;;;;;;;26.40;58.49;100704.22;4965217;28;1699;-52
2021/08/04 08:41:30;;;;;;;;;;;;;;;26.35;59.13;100701.22;4969663;28;1898;-52
2021/08/04 08:43:57;;;;;;;;;;;;;;;26.39;59.21;100705.25;4964160;28;1826;-52
2021/08/04 08:46:26;;;;;;;;;;;;;;;26.35;59.23;100690.38;4965073;28;1682;-52
2021/08/04 08:49:02;;;;;;;;;;;;;;;26.35;59.20;100687.69;4962307;28;1754;-52
2021/08/04 08:51:29;;;;;;;;;;;;;;;26.35;59.17;100690.38;4969283;28;1160;-52
2021/08/04 08:53:55;;;;;;;;;;;;;;;26.34;58.84;100689.56;4961406;28;2131;-53
2021/08/04 08:56:22;;;;;;;;;;;;;;;26.36;58.43;100694.75;4972279;28;1836;-52
2021/08/04 08:58:50;;;;;;;;;;;;;;;26.39;58.49;100689.00;4963196;28;997;-52
2021/08/04 09:01:16;;;;;;;;;;;;;;;26.38;58.54;100695.44;4965012;28;2069;-52
2021/08/04 09:03:50;;;;;;;;;;;;;;;26.39;58.80;100697.97;4982139;28;1734;-52
2021/08/04 09:06:18;;;;;;;;;;;;;;;26.37;59.38;100685.63;5003899;28;997;-52
2021/08/04 09:08:44;;;;;;;;;;;;;;;26.40;58.45;100698.78;5000475;28;1922;-52
2021/08/04 09:11:12;;;;;;;;;;;;;;;26.42;58.71;100691.31;5002372;28;1810;-52
2021/08/04 09:13:39;;;;;;;;;;;;;;;26.35;59.40;100677.66;5009422;28;2061;-52
2021/08/04 09:16:06;;;;;;;;;;;;;;;26.39;59.18;100667.28;5011188;28;1526;-52
2021/08/04 09:18:39;;;;;;;;;;;;;;;26.38;59.18;100681.88;5007195;28;1684;-52
2021/08/04 09:21:06;;;;;;;;;;;;;;;26.38;59.26;100676.44;5005604;28;1104;-52
2021/08/04 09:23:40;;;;;;;;;;;;;;;26.37;59.60;100678.31;5001998;28;1902;-52
2021/08/04 09:26:07;;;;;;;;;;;;;;;26.34;59.33;100662.44;5011498;28;1060;-52
2021/08/04 09:28:48;;;;;;;;;;;;;;;26.42;58.74;100671.50;4999656;28;1796;-52
2021/08/04 09:31:14;;;;;;;;;;;;;;;26.38;59.45;100662.88;5003084;28;1838;-52
2021/08/04 09:33:41;;;;;;;;;;;;;;;26.40;58.69;100666.25;4998247;28;1824;-52
2021/08/04 09:36:08;;;;;;;;;;;;;;;26.44;59.39;100667.59;5001228;28;1836;-52
2021/08/04 09:38:36;;;;;;;;;;;;;;;26.41;59.55;100658.97;5002084;28;1750;-52
2021/08/04 09:41:12;;;;;;;;;;;;;;;26.37;59.02;100661.22;5002503;28;1425;-53
2021/08/04 09:43:39;;;;;;;;;;;;;;;26.41;59.43;100665.25;5000728;28;1907;-52
2021/08/04 09:46:05;;;;;;;;;;;;;;;26.39;59.49;100648.31;5001607;28;1752;-53
2021/08/04 09:48:32;;;;;;;;;;;;;;;26.37;59.48;100655.78;5001936;28;1846;-53
2021/08/04 09:50:59;;;;;;;;;;;;;;;26.38;59.17;100657.47;5003682;28;991;-52
2021/08/04 09:53:27;;;;;;;;;;;;;;;26.40;59.82;100658.13;5002428;28;1732;-52
2021/08/04 09:56:05;;;;;;;;;;;;;;;26.40;59.21;100660.81;5009702;28;1186;-52
2021/08/04 09:58:32;;;;;;;;;;;;;;;26.37;59.72;100645.78;4999640;28;1906;-52
2021/08/04 10:01:00;;;;;;;;;;;;;;;26.43;59.03;100654.22;4999677;28;2007;-53
2021/08/04 10:03:33;;;;;;;;;;;;;;;26.41;59.19;100645.44;5009694;28;1906;-53
2021/08/04 10:05:59;;;;;;;;;;;;;;;26.39;59.71;100632.88;5003224;28;1021;-52
2021/08/04 10:08:26;;;;;;;;;;;;;;;26.44;59.34;100650.47;4997062;28;1938;-52
2021/08/04 10:10:53;;;;;;;;;;;;;;;26.37;59.87;100634.94;5008124;28;1766;-52
2021/08/04 10:13:22;;;;;;;;;;;;;;;26.38;59.46;100646.63;5010938;28;1740;-52
2021/08/04 10:15:49;;;;;;;;;;;;;;;26.37;59.47;100634.09;5007323;28;1892;-52
2021/08/04 10:18:17;;;;;;;;;;;;;;;26.37;59.14;100628.69;4998443;28;1801;-52
2021/08/04 10:20:44;;;;;;;;;;;;;;;26.37;59.35;100637.66;5000755;28;1060;-52
2021/08/04 10:23:13;;;;;;;;;;;;;;;26.37;59.55;100629.53;5003330;28;2121;-52
2021/08/04 10:25:40;;;;;;;;;;;;;;;26.39;59.95;100638.31;5012009;28;1081;-52
2021/08/04 10:28:07;;;;;;;;;;;;;;;26.39;59.99;100632.88;5010528;28;1928;-53
2021/08/04 10:30:36;;;;;;;;;;;;;;;26.44;60.07;100643.19;5002350;28;1486;-52
2021/08/04 10:33:04;;;;;;;;;;;;;;;26.39;59.89;100623.91;5003960;28;1752;-53
2021/08/04 10:35:30;;;;;;;;;;;;;;;26.41;59.42;100635.41;5009722;28;1551;-53
2021/08/04 10:37:57;;;;;;;;;;;;;;;26.40;59.64;100636.44;5004334;28;1101;-52
2021/08/04 10:40:25;;;;;;;;;;;;;;;26.40;59.78;100633.72;5002840;28;1940;-53
2021/08/04 10:42:51;;;;;;;;;;;;;;;26.45;60.12;100639.44;5007930;28;1981;-53
2021/08/04 10:45:35;;;;;;;;;;;;;;;26.40;60.03;100633.72;5000425;28;1838;-52
2021/08/04 10:48:18;;;;;;;;;;;;;;;26.43;59.35;100637.94;5009983;28;1844;-53
2021/08/04 10:50:59;;;;;;;;;;;;;;;26.39;60.23;100632.06;5014073;28;1875;-52
2021/08/04 10:53:26;;;;;;;;;;;;;;;26.40;60.17;100617.44;4999440;28;1822;-53
2021/08/04 10:55:53;;;;;;;;;;;;;;;26.41;59.94;100630.00;5012772;28;1084;-52
2021/08/04 10:58:20;;;;;;;;;;;;;;;26.41;59.42;100619.16;5014627;28;1801;-53
2021/08/04 11:00:48;;;;;;;;;;;;;;;26.44;60.09;100621.50;5014949;28;1774;-53
2021/08/04 11:03:33;;;;;;;;;;;;;;;26.47;60.16;100623.81;5004477;28;1989;-53
2021/08/04 11:06:03;;;;;;;;;;;;;;;26.44;60.13;100624.22;5009721;28;1708;-53
2021/08/04 11:08:29;;;;;;;;;;;;;;;26.44;59.95;100624.22;5004972;28;2046;-53
2021/08/04 11:10:56;;;;;;;;;;;;;;;26.45;60.13;100627.75;5003774;28;1731;-52
2021/08/04 11:13:41;;;;;;;;;;;;;;;26.43;60.24;100611.66;5003105;28;1568;-52
2021/08/04 11:16:26;;;;;;;;;;;;;;;26.42;59.77;100625.41;5009450;28;1662;-52
2021/08/04 11:19:00;;;;;;;;;;;;;;;26.43;59.90;100617.09;5003408;28;1758;-52
2021/08/04 11:21:26;;;;;;;;;;;;;;;26.44;60.27;100629.63;5006837;28;1081;-52
2021/08/04 11:23:53;;;;;;;;;;;;;;;26.46;60.11;100624.84;5002919;28;1934;-53
2021/08/04 11:26:27;;;;;;;;;;;;;;;26.44;59.89;100624.22;5013460;28;1634;-53
2021/08/04 11:28:54;;;;;;;;;;;;;;;26.44;59.91;100632.34;5003948;28;1554;-53
2021/08/04 11:31:20;;;;;;;;;;;;;;;26.48;59.78;100619.22;5014193;28;1116;-52
2021/08/04 11:33:48;;;;;;;;;;;;;;;26.42;60.07;100630.81;5013486;28;1803;-52
2021/08/04 11:36:19;;;;;;;;;;;;;;;26.46;60.19;100624.84;5002962;28;2028;-53
2021/08/04 11:38:48;;;;;;;;;;;;;;;26.45;60.57;100627.75;5000598;28;1893;-52
2021/08/04 11:41:16;;;;;;;;;;;;;;;26.46;59.58;100627.56;5013323;28;1993;-52
2021/08/04 11:43:42;;;;;;;;;;;;;;;26.46;60.50;100619.44;5012920;28;1981;-52
2021/08/04 11:46:09;;;;;;;;;;;;;;;26.47;60.02;100612.97;5013720;28;1595;-52
2021/08/04 11:48:52;;;;;;;;;;;;;;;26.48;60.42;100611.94;5013348;28;1458;-52
2021/08/04 11:51:30;;;;;;;;;;;;;;;26.47;59.74;100604.00;5015105;28;1044;-52
2021/08/04 11:53:58;;;;;;;;;;;;;;;26.48;60.16;100605.66;5013895;28;2025;-53
2021/08/04 11:56:25;;;;;;;;;;;;;;;26.46;60.35;100605.88;5014340;28;2095;-52
2021/08/04 11:58:51;;;;;;;;;;;;;;;26.48;59.69;100617.38;5014615;28;1669;-53
2021/08/04 12:01:18;;;;;;;;;;;;;;;26.52;59.97;100615.09;5014328;28;1899;-52
2021/08/04 12:03:45;;;;;;;;;;;;;;;26.50;59.71;100595.47;5012018;28;1967;-52
2021/08/04 12:06:16;;;;;;;;;;;;;;;26.48;59.77;100592.97;5015013;28;1073;-52
2021/08/04 12:08:43;;;;;;;;;;;;;;;26.49;59.82;100563.97;5003164;28;1837;-52
2021/08/04 12:11:09;;;;;;;;;;;;;;;26.47;59.99;100583.13;5004749;28;1748;-52
2021/08/04 12:13:36;;;;;;;;;;;;;;;26.50;60.42;100582.78;5004551;28;2045;-52
2021/08/04 12:16:03;;;;;;;;;;;;;;;26.48;59.78;100586.69;5004618;28;1700;-52
2021/08/04 12:18:29;;;;;;;;;;;;;;;26.50;60.59;100576.47;5004555;28;1868;-52
2021/08/04 12:20:56;;;;;;;;;;;;;;;26.45;60.31;100568.94;5007059;28;1007;-52
2021/08/04 12:23:24;;;;;;;;;;;;;;;26.47;59.83;100568.75;5006011;28;1978;-52
2021/08/04 12:25:58;;;;;;;;;;;;;;;26.50;59.75;100580.06;5011309;28;1068;-52
2021/08/04 12:28:29;;;;;;;;;;;;;;;26.55;60.39;100568.63;5013202;28;1646;-52
2021/08/04 12:30:55;;;;;;;;;;;;;;;26.52;60.38;100550.88;5013522;28;2157;-52
2021/08/04 12:33:22;;;;;;;;;;;;;;;26.50;60.53;100566.50;5013585;28;1616;-52
2021/08/04 12:36:01;;;;;;;;;;;;;;;26.48;60.15;100560.44;5013354;28;1921;-52
2021/08/04 12:38:29;;;;;;;;;;;;;;;26.49;60.20;100562.09;5006466;28;1949;-52
2021/08/04 12:40:57;;;;;;;;;;;;;;;26.45;60.56;100563.50;5003835;28;1747;-52
2021/08/04 12:43:24;;;;;;;;;;;;;;;26.45;60.71;100560.78;5006994;28;1907;-52
2021/08/04 12:45:51;;;;;;;;;;;;;;;26.51;60.58;100565.47;5010832;28;1822;-52
2021/08/04 12:48:19;;;;;;;;;;;;;;;26.52;60.29;100561.72;5001825;28;1633;-52
2021/08/04 12:50:50;;;;;;;;;;;;;;;26.47;60.39;100558.72;5005653;28;1075;-52
2021/08/04 12:53:21;;;;;;;;;;;;;;;26.45;60.34;100552.66;5006131;28;1942;-52